createdAt,value
2022-12-26T00:00:35.470Z,6.83
2022-12-26T00:03:58.131Z,6.57
2022-12-26T00:07:19.544Z,6.10
2022-12-26T00:10:42.151Z,6.20
2022-12-26T00:14:06.460Z,6.57
2022-12-26T00:17:27.756Z,6.33
2022-12-26T00:20:49.095Z,7.00
2022-12-26T00:24:12.416Z,6.80
2022-12-26T00:27:35.547Z,6.37
2022-12-26T00:30:57.252Z,6.10
2022-12-26T00:34:18.908Z,6.77
2022-12-26T00:37:40.306Z,6.15
2022-12-26T00:41:02.040Z,5.70
2022-12-26T00:44:25.013Z,6.17
2022-12-26T00:47:48.344Z,6.37
2022-12-26T00:51:10.435Z,6.15
2022-12-26T00:54:31.936Z,6.27
2022-12-26T00:57:53.632Z,5.77
2022-12-26T01:01:19.247Z,5.97
2022-12-26T01:04:40.703Z,6.07
2022-12-26T01:08:21.913Z,6.05
2022-12-26T01:11:43.781Z,5.90
2022-12-26T01:15:06.670Z,5.60
2022-12-26T01:18:29.855Z,5.70
2022-12-26T01:21:51.419Z,6.10
2022-12-26T01:25:13.198Z,5.60
2022-12-26T01:28:34.801Z,5.97
2022-12-26T01:31:56.520Z,5.50
2022-12-26T01:35:19.589Z,5.50
2022-12-26T01:38:41.403Z,5.50
2022-12-26T01:42:03.285Z,4.95
2022-12-26T01:45:29.246Z,4.97
2022-12-26T01:48:52.387Z,6.00
2022-12-26T01:52:19.125Z,5.82
2022-12-26T01:55:41.495Z,4.97
2022-12-26T01:59:06.892Z,5.47
2022-12-26T02:02:30.660Z,4.60
2022-12-26T02:05:51.411Z,5.45
2022-12-26T02:09:14.603Z,5.05
2022-12-26T02:12:38.939Z,5.13
2022-12-26T02:16:00.939Z,5.43
2022-12-26T02:19:34.883Z,5.30
2022-12-26T02:23:39.657Z,4.60
2022-12-26T02:27:22.640Z,4.30
2022-12-26T02:30:53.217Z,4.47
2022-12-26T02:34:19.577Z,4.47
2022-12-26T02:37:53.336Z,4.72
2022-12-26T02:41:27.402Z,4.30
2022-12-26T02:45:13.069Z,4.63
2022-12-26T02:48:48.387Z,4.20
2022-12-26T02:52:41.321Z,4.03
2022-12-26T02:56:31.922Z,4.10
2022-12-26T03:00:16.298Z,4.45
2022-12-26T03:03:58.690Z,4.25
2022-12-26T03:07:41.592Z,3.90
2022-12-26T03:11:21.120Z,4.38
2022-12-26T03:14:48.714Z,4.50
2022-12-26T03:18:11.266Z,4.05
2022-12-26T03:21:37.795Z,3.90
2022-12-26T03:25:20.312Z,4.00
2022-12-26T03:28:42.970Z,3.70
2022-12-26T03:32:05.874Z,4.18
2022-12-26T03:35:31.772Z,4.18
2022-12-26T03:39:07.941Z,4.07
2022-12-26T03:42:54.367Z,3.97
2022-12-26T03:46:40.853Z,3.80
2022-12-26T03:50:21.909Z,4.18
2022-12-26T03:54:07.231Z,3.88
2022-12-26T03:57:53.572Z,3.80
2022-12-26T04:01:37.835Z,4.05
2022-12-26T04:05:20.269Z,3.90
2022-12-26T04:09:06.521Z,4.10
2022-12-26T04:12:48.682Z,4.03
2022-12-26T04:16:34.922Z,3.78
2022-12-26T04:20:02.950Z,4.03
2022-12-26T04:23:49.985Z,3.92
2022-12-26T04:27:31.951Z,3.88
2022-12-26T04:31:17.538Z,4.18
2022-12-26T04:35:04.828Z,4.00
2022-12-26T04:38:48.623Z,4.50
2022-12-26T04:42:29.077Z,3.97
2022-12-26T04:45:51.348Z,4.25
2022-12-26T04:49:34.340Z,3.80
2022-12-26T04:53:01.704Z,4.22
2022-12-26T04:56:23.426Z,3.97
2022-12-26T04:59:44.748Z,4.47
2022-12-26T05:03:23.899Z,3.70
2022-12-26T05:07:04.707Z,3.78
2022-12-26T05:10:28.617Z,4.07
2022-12-26T05:13:50.235Z,4.15
2022-12-26T05:17:31.738Z,3.93
2022-12-26T05:21:10.320Z,3.53
2022-12-26T05:24:56.185Z,4.30
2022-12-26T05:28:41.598Z,3.70
2022-12-26T05:32:02.998Z,3.65
2022-12-26T05:35:23.733Z,3.90
2022-12-26T05:38:45.482Z,3.58
2022-12-26T05:42:08.635Z,3.35
2022-12-26T05:45:30.313Z,3.08
2022-12-26T05:48:52.000Z,3.30
2022-12-26T05:52:13.659Z,3.00
2022-12-26T05:55:34.970Z,3.30
2022-12-26T05:58:59.275Z,3.42
2022-12-26T06:02:21.369Z,3.47
2022-12-26T06:05:43.245Z,3.28
2022-12-26T06:09:05.097Z,3.30
2022-12-26T06:12:26.868Z,3.60
2022-12-26T06:15:50.021Z,3.25
2022-12-26T06:19:11.837Z,3.05
2022-12-26T06:22:33.132Z,3.47
2022-12-26T06:25:56.516Z,3.35
2022-12-26T06:29:18.254Z,3.15
2022-12-26T06:32:41.262Z,3.05
2022-12-26T06:36:05.185Z,3.33
2022-12-26T06:39:26.343Z,3.17
2022-12-26T06:42:48.288Z,3.17
2022-12-26T06:46:14.203Z,3.08
2022-12-26T06:49:37.309Z,3.05
2022-12-26T06:52:58.745Z,3.55
2022-12-26T06:56:22.280Z,3.47
2022-12-26T06:59:43.920Z,3.83
2022-12-26T07:03:05.883Z,4.18
2022-12-26T07:06:30.978Z,4.18
2022-12-26T07:09:52.579Z,3.88
2022-12-26T07:13:15.381Z,4.07
2022-12-26T07:16:38.117Z,4.22
2022-12-26T07:19:59.772Z,3.88
2022-12-26T07:23:22.955Z,4.07
2022-12-26T07:26:45.137Z,4.28
2022-12-26T07:30:08.561Z,4.35
2022-12-26T07:33:31.112Z,4.38
2022-12-26T07:36:52.883Z,4.15
2022-12-26T07:40:15.680Z,3.97
2022-12-26T07:43:37.189Z,3.95
2022-12-26T07:47:00.479Z,4.20
2022-12-26T07:50:22.411Z,4.10
2022-12-26T07:53:44.292Z,4.20
2022-12-26T07:57:46.355Z,4.15
2022-12-26T08:00:48.662Z,4.25
2022-12-26T08:04:10.365Z,4.18
2022-12-26T08:07:32.938Z,4.50
2022-12-26T08:11:00.350Z,4.43
2022-12-26T08:14:23.634Z,4.15
2022-12-26T08:17:45.017Z,3.65
2022-12-26T08:21:07.053Z,4.22
2022-12-26T08:24:28.480Z,3.80
2022-12-26T08:27:50.291Z,4.22
2022-12-26T08:31:14.645Z,4.13
2022-12-26T08:34:37.237Z,4.32
2022-12-26T08:37:58.732Z,4.00
2022-12-26T08:41:20.317Z,4.10
2022-12-26T08:44:42.039Z,3.60
2022-12-26T08:48:05.039Z,3.63
2022-12-26T08:51:27.455Z,4.30
2022-12-26T08:54:50.046Z,3.17
2022-12-26T08:58:11.894Z,3.50
2022-12-26T09:01:33.737Z,3.10
2022-12-26T09:04:57.282Z,3.50
2022-12-26T09:08:19.037Z,3.50
2022-12-26T09:11:42.004Z,3.10
2022-12-26T09:15:03.885Z,3.67
2022-12-26T09:18:25.779Z,4.30
2022-12-26T09:22:09.874Z,3.70
2022-12-26T09:25:31.892Z,4.30
2022-12-26T09:28:54.040Z,3.80
2022-12-26T09:32:15.671Z,3.87
2022-12-26T09:35:40.422Z,3.73
2022-12-26T09:39:03.483Z,3.90
2022-12-26T09:42:33.429Z,3.58
2022-12-26T09:46:06.996Z,4.07
2022-12-26T09:49:32.779Z,4.15
2022-12-26T09:52:57.942Z,3.60
2022-12-26T10:00:13.446Z,4.00
2022-12-26T10:03:39.516Z,4.00
2022-12-26T10:07:13.750Z,5.13
2022-12-26T10:10:45.880Z,3.40
2022-12-26T10:14:21.435Z,3.70
2022-12-26T10:17:49.233Z,3.53
2022-12-26T10:21:25.859Z,3.08
2022-12-26T10:24:49.132Z,3.00
2022-12-26T10:28:19.215Z,2.77
2022-12-26T10:31:46.178Z,3.17
2022-12-26T10:35:22.691Z,3.10
2022-12-26T10:38:47.941Z,3.03
2022-12-26T10:42:25.479Z,3.10
2022-12-26T10:45:54.285Z,3.10
2022-12-26T10:49:19.869Z,3.50
2022-12-26T10:52:42.234Z,3.47
2022-12-26T10:56:04.227Z,3.10
2022-12-26T10:59:37.015Z,3.20
2022-12-26T11:03:07.553Z,3.80
2022-12-26T11:06:34.495Z,3.10
2022-12-26T11:09:56.806Z,3.00
2022-12-26T11:13:22.722Z,2.53
2022-12-26T11:16:44.579Z,2.83
2022-12-26T11:20:24.393Z,2.78
2022-12-26T11:23:49.350Z,3.17
2022-12-26T11:27:20.396Z,3.03
2022-12-26T11:30:48.086Z,2.83
2022-12-26T11:34:11.527Z,3.10
2022-12-26T11:37:42.403Z,2.80
2022-12-26T11:41:28.502Z,2.50
2022-12-26T11:44:53.652Z,2.90
2022-12-26T11:48:23.544Z,3.20
2022-12-26T11:51:52.803Z,3.08
2022-12-26T11:55:32.776Z,3.17
2022-12-26T11:59:16.132Z,2.83
2022-12-26T12:02:40.936Z,3.22
2022-12-26T12:06:10.181Z,2.85
2022-12-26T12:09:39.012Z,3.25
2022-12-26T12:13:05.395Z,2.50
2022-12-26T12:16:40.438Z,2.70
2022-12-26T12:20:30.121Z,2.55
2022-12-26T12:24:28.538Z,2.43
2022-12-26T12:27:57.934Z,2.53
2022-12-26T12:31:29.734Z,2.55
2022-12-26T12:35:23.901Z,2.70
2022-12-26T12:39:08.613Z,2.90
2022-12-26T12:42:45.824Z,2.72
2022-12-26T12:46:17.071Z,2.90
2022-12-26T12:49:54.734Z,3.58
2022-12-26T12:53:33.349Z,3.53
2022-12-26T12:57:02.677Z,3.73
2022-12-26T13:00:28.656Z,3.78
2022-12-26T13:03:55.831Z,3.83
2022-12-26T13:07:22.895Z,3.28
2022-12-26T13:10:52.010Z,3.90
2022-12-26T13:14:17.455Z,3.22
2022-12-26T13:17:53.376Z,3.67
2022-12-26T13:21:16.151Z,3.20
2022-12-26T13:24:50.524Z,3.38
2022-12-26T13:28:20.163Z,3.70
2022-12-26T13:31:42.810Z,3.85
2022-12-26T13:35:04.391Z,4.03
2022-12-26T13:38:27.575Z,3.70
2022-12-26T13:42:09.557Z,3.00
2022-12-26T13:45:50.252Z,3.63
2022-12-26T13:49:29.266Z,2.90
2022-12-26T13:52:50.926Z,2.40
2022-12-26T13:57:05.338Z,2.90
2022-12-26T14:00:46.129Z,2.50
2022-12-26T14:04:32.462Z,2.53
2022-12-26T14:08:00.732Z,2.60
2022-12-26T14:11:38.473Z,2.80
2022-12-26T14:15:18.163Z,2.58
2022-12-26T14:18:50.839Z,2.25
2022-12-26T14:22:19.212Z,2.45
2022-12-26T14:25:53.583Z,2.50
2022-12-26T14:29:24.592Z,2.20
2022-12-26T14:33:19.028Z,2.53
2022-12-26T14:36:49.580Z,2.35
2022-12-26T14:40:28.633Z,2.60
2022-12-26T14:43:56.261Z,2.67
2022-12-26T14:47:38.524Z,2.38
2022-12-26T14:51:44.992Z,2.53
2022-12-26T14:55:39.642Z,2.63
2022-12-26T14:59:27.411Z,2.97
2022-12-26T15:03:08.404Z,3.25
2022-12-26T15:06:59.369Z,2.55
2022-12-26T15:10:43.651Z,2.53
2022-12-26T15:14:52.802Z,3.10
2022-12-26T15:18:50.304Z,2.85
2022-12-26T15:22:50.888Z,3.25
2022-12-26T15:26:55.808Z,3.53
2022-12-26T15:30:21.596Z,3.13
2022-12-26T15:33:51.320Z,2.78
2022-12-26T15:37:25.616Z,3.30
2022-12-26T15:40:55.145Z,3.70
2022-12-26T15:44:27.919Z,3.25
2022-12-26T15:47:59.808Z,3.45
2022-12-26T15:51:36.901Z,2.85
2022-12-26T15:55:22.577Z,3.40
2022-12-26T15:59:09.154Z,3.20
2022-12-26T16:02:36.881Z,3.10
2022-12-26T16:06:06.844Z,3.20
2022-12-26T16:09:40.044Z,3.40
2022-12-26T16:13:22.991Z,3.55
2022-12-26T16:16:44.813Z,3.30
2022-12-26T16:20:19.123Z,3.40
2022-12-26T16:23:43.719Z,3.10
2022-12-26T16:27:09.164Z,2.80
2022-12-26T16:30:37.305Z,2.63
2022-12-26T16:34:00.722Z,3.27
2022-12-26T16:37:26.224Z,2.70
2022-12-26T16:40:49.289Z,2.60
2022-12-26T16:44:31.158Z,2.75
2022-12-26T16:47:53.399Z,2.78
2022-12-26T16:51:36.372Z,2.63
2022-12-26T16:54:57.883Z,2.55
2022-12-26T16:58:25.089Z,1.87
2022-12-26T17:01:51.941Z,1.90
2022-12-26T17:05:28.818Z,1.60
2022-12-26T17:08:52.471Z,1.60
2022-12-26T17:12:22.227Z,1.60
2022-12-26T17:15:52.836Z,1.00
2022-12-26T17:19:19.706Z,1.47
2022-12-26T17:22:41.563Z,1.57
2022-12-26T17:26:26.558Z,1.53
2022-12-26T17:29:51.648Z,1.30
2022-12-26T17:33:16.672Z,1.10
2022-12-26T17:40:27.573Z,1.30
2022-12-26T17:43:50.309Z,1.00
2022-12-26T17:47:19.517Z,1.00
2022-12-26T17:50:43.682Z,1.00
2022-12-26T17:54:06.875Z,1.20
2022-12-26T17:57:30.173Z,1.10
2022-12-26T18:00:53.070Z,1.30
2022-12-26T18:04:14.654Z,1.20
2022-12-26T18:07:36.657Z,1.30
2022-12-26T18:11:01.588Z,1.40
2022-12-26T18:14:23.794Z,1.63
2022-12-26T18:17:46.843Z,1.60
2022-12-26T18:21:10.742Z,1.60
2022-12-26T18:24:32.156Z,1.83
2022-12-26T18:27:55.239Z,1.80
2022-12-26T18:31:17.607Z,2.10
2022-12-26T18:34:39.602Z,2.10
2022-12-26T18:38:01.332Z,1.90
2022-12-26T18:41:23.198Z,2.63
2022-12-26T18:44:46.684Z,1.83
2022-12-26T18:48:12.534Z,1.63
2022-12-26T18:51:34.016Z,1.23
2022-12-26T18:54:55.752Z,0.83
2022-12-26T18:58:17.543Z,0.60
2022-12-26T19:01:40.805Z,0.70
2022-12-26T19:05:02.353Z,0.60
2022-12-26T19:08:23.952Z,0.80
2022-12-26T19:11:45.932Z,0.80
2022-12-26T19:15:08.349Z,0.70
2022-12-26T19:18:31.402Z,0.70
2022-12-26T19:21:53.083Z,0.80
2022-12-26T19:25:15.549Z,0.40
2022-12-26T19:28:37.302Z,0.87
2022-12-26T19:31:59.052Z,1.03
2022-12-26T19:35:22.482Z,0.90
2022-12-26T19:38:44.011Z,0.73
2022-12-26T19:42:05.881Z,0.70
2022-12-26T19:45:27.676Z,0.80
2022-12-26T19:48:49.384Z,0.73
2022-12-26T19:52:13.297Z,0.77
2022-12-26T19:55:35.003Z,0.70
2022-12-26T19:58:57.276Z,1.03
2022-12-26T20:02:20.247Z,0.90
2022-12-26T20:05:42.222Z,0.80
2022-12-26T20:09:08.548Z,1.43
2022-12-26T20:12:30.238Z,1.00
2022-12-26T20:15:51.997Z,1.03
2022-12-26T20:19:13.846Z,1.20
2022-12-26T20:22:35.260Z,1.00
2022-12-26T20:26:00.802Z,0.90
2022-12-26T20:29:22.778Z,1.20
2022-12-26T20:32:46.785Z,1.30
2022-12-26T20:36:11.119Z,1.50
2022-12-26T20:39:33.140Z,1.03
2022-12-26T20:42:55.980Z,1.73
2022-12-26T20:46:19.430Z,1.37
2022-12-26T20:49:40.792Z,1.10
2022-12-26T20:53:02.610Z,1.07
2022-12-26T20:56:24.352Z,1.20
2022-12-26T20:59:49.959Z,1.20
2022-12-26T21:03:11.899Z,1.10
2022-12-26T21:06:35.418Z,1.60
2022-12-26T21:09:57.040Z,1.30
2022-12-26T21:13:18.643Z,1.43
2022-12-26T21:16:44.182Z,1.90
2022-12-26T21:20:06.328Z,1.90
2022-12-26T21:23:27.824Z,1.33
2022-12-26T21:26:49.987Z,1.77
2022-12-26T21:30:13.541Z,1.77
2022-12-26T21:33:44.058Z,1.70
2022-12-26T21:37:23.424Z,1.30
2022-12-26T21:40:45.091Z,1.53
2022-12-26T21:44:06.667Z,1.30
2022-12-26T21:47:29.506Z,1.47
2022-12-26T21:50:52.300Z,1.60
2022-12-26T21:54:31.063Z,1.60
2022-12-26T21:57:52.468Z,1.30
2022-12-26T22:01:18.098Z,1.37
2022-12-26T22:04:38.725Z,1.83
2022-12-26T22:08:03.616Z,1.73
2022-12-26T22:11:42.530Z,2.10
2022-12-26T22:15:03.983Z,1.67
2022-12-26T22:18:25.308Z,1.13
2022-12-26T22:21:46.925Z,1.33
2022-12-26T22:25:11.071Z,1.73
2022-12-26T22:28:33.006Z,1.20
2022-12-26T22:31:58.360Z,1.97
2022-12-26T22:35:20.178Z,1.20
2022-12-26T22:38:41.903Z,1.97
2022-12-26T22:42:05.056Z,1.40
2022-12-26T22:45:26.634Z,2.07
2022-12-26T22:48:49.188Z,1.77
2022-12-26T22:52:15.651Z,1.20
2022-12-26T22:55:37.276Z,2.23
2022-12-26T22:59:00.996Z,1.40
2022-12-26T23:02:22.907Z,1.33
2022-12-26T23:05:45.521Z,1.67
2022-12-26T23:09:13.765Z,1.57
2022-12-26T23:12:44.817Z,1.30
2022-12-26T23:16:15.182Z,1.50
2022-12-26T23:20:01.791Z,1.37
2022-12-26T23:23:24.288Z,1.40
2022-12-26T23:26:49.585Z,1.33
2022-12-26T23:30:20.820Z,1.40
2022-12-26T23:33:44.285Z,1.60
2022-12-26T23:37:05.523Z,1.63
2022-12-26T23:40:27.591Z,1.53
2022-12-26T23:43:49.168Z,1.50
2022-12-26T23:47:11.054Z,1.80
2022-12-26T23:50:34.284Z,1.50
2022-12-26T23:53:55.755Z,1.30
2022-12-26T23:57:17.585Z,1.80
